Terminal Aerodrome Forecast
Issued by NWS

Home | Current Version | Previous Version | Text Only | Print | Product List | Glossary On
Versions: 1 2 3 4 5 6 7 8 9 10 11 12 13 14 15 16 17 18
667
FTUS43 KDVN 161951 AAA
TAFBRL
TAF AMD
KBRL 161951Z 1620/1718 11009KT 5SM SHRA BR OVC003
     FM162100 13005KT 2SM -DZ BR OVC003
     FM170000 13005KT 1/4SM DZ FG OVC002 PROB30 1705/1706 2SM SHRA
      BR OVC004
     FM170800 26007KT 1/2SM -DZ FG OVC004
     FM171600 27008KT 1SM BR OVC005=

USA.gov is the U.S. government's official web portal to all federal, state and local government web resources and services.